Time;durP1;ratioP1;P1;durP2;ratioP2;P2;SDS_P1;SDS_P2;PMS_P1;PMS_P2;Temp;Humidity;BMP_temperature;BMP_pressure;BME280_temperature;BME280_humidity;BME280_pressure;Samples;Min_cycle;Max_cycle;Signal;HPM_P1;HPM_P2
2021/05/03 00:02:17;;;;;;;5.60;4.37;;;;;;;6.96;82.36;98603.94;5093892;28;20251;-63
2021/05/03 00:04:43;;;;;;;6.37;4.67;;;;;;;6.83;82.50;98605.44;5093722;28;20225;-63
2021/05/03 00:07:09;;;;;;;5.80;4.63;;;;;;;6.70;83.55;98607.75;5093604;28;20604;-63
2021/05/03 00:09:36;;;;;;;5.43;4.80;;;;;;;6.56;83.95;98609.31;5093471;28;20210;-63
2021/05/03 00:12:02;;;;;;;7.87;5.13;;;;;;;6.37;86.30;98604.06;5093503;28;20218;-64
2021/05/03 00:14:28;;;;;;;6.37;4.73;;;;;;;6.26;86.54;98602.81;5093353;28;20289;-63
2021/05/03 00:16:54;;;;;;;6.17;4.80;;;;;;;6.17;87.56;98606.69;5093526;28;20722;-62
2021/05/03 00:19:20;;;;;;;6.00;5.17;;;;;;;6.06;87.72;98603.72;5091705;28;20299;-63
2021/05/03 00:21:46;;;;;;;6.07;4.90;;;;;;;6.03;88.55;98603.84;5093490;28;20208;-62
2021/05/03 00:24:12;;;;;;;6.30;5.10;;;;;;;6.03;87.99;98601.22;5093457;28;20231;-62
2021/05/03 00:26:39;;;;;;;6.60;5.33;;;;;;;5.96;89.28;98602.41;5093113;28;20224;-63
2021/05/03 00:29:05;;;;;;;6.27;5.30;;;;;;;5.92;89.80;98600.81;5093388;28;20218;-63
2021/05/03 00:31:31;;;;;;;5.33;4.83;;;;;;;5.85;90.75;98603.75;5093316;28;20212;-63
2021/05/03 00:33:57;;;;;;;6.73;5.10;;;;;;;5.77;91.04;98606.69;5093346;28;20212;-64
2021/05/03 00:36:23;;;;;;;5.70;4.90;;;;;;;5.71;91.39;98606.97;5098178;28;20241;-63
2021/05/03 00:38:49;;;;;;;5.73;4.80;;;;;;;5.67;92.37;98615.88;5099648;28;20210;-63
2021/05/03 00:41:15;;;;;;;6.10;5.30;;;;;;;5.65;92.61;98611.59;5099623;28;20230;-63
2021/05/03 00:43:42;;;;;;;5.80;5.03;;;;;;;5.60;93.35;98613.56;5099930;28;20203;-63
2021/05/03 00:46:08;;;;;;;6.43;5.53;;;;;;;5.54;94.11;98609.44;5098178;28;20212;-63
2021/05/03 00:48:34;;;;;;;6.57;5.20;;;;;;;5.59;94.18;98619.72;5099905;28;20215;-62
2021/05/03 00:51:00;;;;;;;6.80;5.40;;;;;;;5.70;94.02;98617.50;5099723;28;20214;-63
2021/05/03 00:53:26;;;;;;;6.30;5.30;;;;;;;5.85;92.81;98616.88;5099616;28;20668;-64
2021/05/03 00:55:52;;;;;;;5.93;5.33;;;;;;;5.94;92.03;98622.63;5099906;28;20219;-64
2021/05/03 00:58:18;;;;;;;6.37;5.30;;;;;;;5.94;92.48;98620.00;5099182;28;20317;-63
2021/05/03 01:00:45;;;;;;;8.13;5.70;;;;;;;5.99;91.47;98620.63;5099419;28;20618;-63
2021/05/03 01:03:11;;;;;;;6.13;5.53;;;;;;;5.97;91.17;98630.34;5099472;28;20573;-63
2021/05/03 01:05:37;;;;;;;8.23;5.47;;;;;;;5.91;89.50;98630.59;5099755;28;20262;-62
2021/05/03 01:08:04;;;;;;;7.13;5.10;;;;;;;5.83;89.42;98637.94;5099638;28;20218;-62
2021/05/03 01:10:31;;;;;;;7.03;5.73;;;;;;;5.54;90.54;98633.03;5099306;28;20671;-62
2021/05/03 01:12:58;;;;;;;6.03;5.43;;;;;;;5.34;93.78;98640.00;5097763;28;20211;-62
2021/05/03 01:15:24;;;;;;;7.83;5.30;;;;;;;5.14;95.71;98635.53;5099644;28;20235;-62
2021/05/03 01:17:57;;;;;;;7.60;6.27;;;;;;;5.01;96.65;98638.72;5099302;28;20231;-63
2021/05/03 01:20:25;;;;;;;7.40;6.50;;;;;;;4.96;97.29;98649.34;5099230;28;20218;-62
2021/05/03 01:22:55;;;;;;;7.93;5.93;;;;;;;4.80;99.06;98640.41;5099550;28;20210;-63
2021/05/03 01:25:21;;;;;;;6.87;5.97;;;;;;;4.71;100.00;98640.75;5099115;28;20293;-62
2021/05/03 01:27:48;;;;;;;7.13;6.00;;;;;;;4.64;100.00;98641.88;5099299;28;20203;-63
2021/05/03 01:30:16;;;;;;;7.70;6.40;;;;;;;4.57;100.00;98643.03;5099477;28;20593;-62
2021/05/03 01:32:42;;;;;;;8.10;6.40;;;;;;;4.50;100.00;98636.31;5099447;28;20207;-64
2021/05/03 01:35:09;;;;;;;7.83;6.67;;;;;;;4.46;100.00;98645.19;5099650;28;20267;-64
2021/05/03 01:37:35;;;;;;;8.80;6.43;;;;;;;4.33;100.00;98643.94;5097707;28;20241;-64
2021/05/03 01:40:04;;;;;;;7.60;6.07;;;;;;;4.25;100.00;98635.53;5099180;28;20211;-63
2021/05/03 01:42:30;;;;;;;8.10;7.13;;;;;;;4.23;100.00;98642.53;5099470;28;20223;-63
2021/05/03 01:44:58;;;;;;;9.87;6.80;;;;;;;4.33;100.00;98643.09;5099162;28;20678;-63
2021/05/03 01:47:25;;;;;;;8.13;6.57;;;;;;;4.38;100.00;98649.84;5096045;28;20213;-63
2021/05/03 01:49:51;;;;;;;8.97;6.93;;;;;;;4.40;100.00;98640.19;5096196;28;20211;-63
2021/05/03 01:52:17;;;;;;;8.40;7.20;;;;;;;4.43;100.00;98640.09;5095881;28;20268;-63
2021/05/03 01:54:44;;;;;;;9.50;7.23;;;;;;;4.47;100.00;98633.81;5096096;28;20259;-63
2021/05/03 01:57:11;;;;;;;9.10;6.60;;;;;;;4.46;100.00;98632.09;5096024;28;20233;-63
2021/05/03 01:59:36;;;;;;;8.70;7.10;;;;;;;4.43;100.00;98633.97;5095986;28;20206;-63
2021/05/03 02:02:02;;;;;;;8.57;6.73;;;;;;;4.35;100.00;98647.34;5095981;28;20610;-62
2021/05/03 02:04:28;;;;;;;8.37;6.93;;;;;;;4.30;100.00;98649.28;5094213;28;20260;-63
2021/05/03 02:06:54;;;;;;;8.10;6.80;;;;;;;4.28;100.00;98651.09;5095709;28;20257;-63
2021/05/03 02:09:20;;;;;;;7.63;6.53;;;;;;;4.20;100.00;98640.06;5095409;28;20252;-63
2021/05/03 02:11:46;;;;;;;9.27;6.60;;;;;;;4.13;100.00;98646.41;5095766;28;20211;-64
2021/05/03 02:14:13;;;;;;;13.73;7.30;;;;;;;4.06;100.00;98647.56;5095353;28;20656;-62
2021/05/03 02:16:39;;;;;;;9.20;7.20;;;;;;;4.03;100.00;98645.03;5095615;28;20231;-65
2021/05/03 02:19:05;;;;;;;8.87;7.40;;;;;;;4.07;100.00;98648.38;5095648;28;20218;-63
2021/05/03 02:21:31;;;;;;;8.20;7.20;;;;;;;4.02;100.00;98651.16;5095613;28;20281;-64
2021/05/03 02:23:57;;;;;;;8.20;6.77;;;;;;;3.98;100.00;98653.94;5095465;28;20210;-63
2021/05/03 02:26:23;;;;;;;10.33;7.47;;;;;;;3.94;100.00;98653.22;5095800;28;20683;-63
2021/05/03 02:28:51;;;;;;;9.43;7.70;;;;;;;3.97;100.00;98652.25;5095440;28;20217;-63
2021/05/03 02:31:18;;;;;;;9.87;7.40;;;;;;;3.89;100.00;98646.41;5093854;28;20214;-63
2021/05/03 02:33:44;;;;;;;9.93;7.87;;;;;;;3.85;100.00;98639.59;5095257;28;20217;-63
2021/05/03 02:36:10;;;;;;;9.90;7.90;;;;;;;3.78;100.00;98643.34;5095271;28;20220;-63
2021/05/03 02:38:36;;;;;;;9.53;7.47;;;;;;;3.83;100.00;98650.09;5095186;28;20241;-63
2021/05/03 02:41:02;;;;;;;8.87;6.87;;;;;;;3.72;100.00;98647.00;5094882;28;20625;-63
2021/05/03 02:43:28;;;;;;;9.57;7.67;;;;;;;3.72;100.00;98648.78;5094853;28;20746;-63
2021/05/03 02:45:54;;;;;;;11.73;7.50;;;;;;;3.72;100.00;98652.22;5094986;28;20702;-63
2021/05/03 02:48:21;;;;;;;10.40;7.77;;;;;;;3.71;100.00;98655.75;5094684;28;20206;-63
2021/05/03 02:50:47;;;;;;;10.50;8.17;;;;;;;3.75;100.00;98652.13;5094895;28;20218;-63
2021/05/03 02:53:13;;;;;;;10.37;8.50;;;;;;;3.81;100.00;98649.31;5094898;28;20624;-63
2021/05/03 02:55:39;;;;;;;9.70;7.70;;;;;;;3.85;100.00;98650.88;5092853;28;20218;-63
2021/05/03 02:58:05;;;;;;;9.07;7.33;;;;;;;3.77;100.00;98652.94;5094482;28;20286;-62
2021/05/03 03:00:34;;;;;;;10.57;7.80;;;;;;;3.73;100.00;98656.53;5094542;28;20205;-62
2021/05/03 03:03:01;;;;;;;10.57;8.27;;;;;;;3.72;100.00;98665.28;5094722;28;20212;-62
2021/05/03 03:05:28;;;;;;;8.87;7.57;;;;;;;3.71;100.00;98654.88;5094687;28;20206;-63
2021/05/03 03:07:54;;;;;;;9.73;7.70;;;;;;;3.72;100.00;98662.69;5094669;28;20213;-62
2021/05/03 03:10:21;;;;;;;10.57;7.83;;;;;;;3.70;100.00;98661.88;5094633;28;20220;-62
2021/05/03 03:12:48;;;;;;;9.20;7.13;;;;;;;3.65;100.00;98653.34;5094598;28;20213;-63
2021/05/03 03:15:16;;;;;;;11.53;8.67;;;;;;;3.64;100.00;98656.88;5094876;28;21377;-63
2021/05/03 03:17:46;;;;;;;10.67;7.80;;;;;;;3.61;100.00;98651.72;5094132;28;20244;-62
2021/05/03 03:20:14;;;;;;;10.00;7.97;;;;;;;3.49;100.00;98649.50;5094301;28;20210;-62
2021/05/03 03:22:40;;;;;;;11.00;7.80;;;;;;;3.46;100.00;98656.59;5092311;28;20674;-63
2021/05/03 03:25:07;;;;;;;10.73;8.73;;;;;;;3.48;100.00;98660.88;5093961;28;20738;-63
2021/05/03 03:27:34;;;;;;;12.43;8.90;;;;;;;3.54;100.00;98673.75;5094265;28;20214;-63
2021/05/03 03:30:00;;;;;;;10.87;8.97;;;;;;;3.61;100.00;98672.63;5094124;28;20681;-62
2021/05/03 03:32:26;;;;;;;10.53;8.50;;;;;;;3.57;100.00;98676.28;5094282;28;20209;-63
2021/05/03 03:34:52;;;;;;;11.13;8.77;;;;;;;3.59;100.00;98666.59;5094130;28;20218;-63
2021/05/03 03:37:18;;;;;;;12.33;9.03;;;;;;;3.59;100.00;98668.34;5093987;28;20239;-64
2021/05/03 03:39:45;;;;;;;10.17;8.33;;;;;;;3.62;100.00;98676.94;5094104;28;20719;-64
2021/05/03 03:42:11;;;;;;;10.40;8.13;;;;;;;3.72;100.00;98678.38;5093699;28;20679;-64
2021/05/03 03:44:37;;;;;;;10.60;8.70;;;;;;;3.85;100.00;98671.81;5093780;28;20668;-64
2021/05/03 03:47:03;;;;;;;12.30;8.63;;;;;;;3.94;100.00;98681.97;5093697;28;20209;-64
2021/05/03 03:49:29;;;;;;;10.43;7.80;;;;;;;3.97;100.00;98681.84;5092246;28;20671;-62
2021/05/03 03:51:55;;;;;;;10.60;8.07;;;;;;;3.95;100.00;98678.44;5093594;28;20213;-62
2021/05/03 03:54:22;;;;;;;12.27;8.87;;;;;;;3.94;100.00;98671.50;5093581;28;20211;-62
2021/05/03 03:56:49;;;;;;;10.87;8.20;;;;;;;3.87;100.00;98683.09;5093610;28;20279;-62
2021/05/03 03:59:15;;;;;;;10.13;8.60;;;;;;;3.81;100.00;98683.31;5093765;28;20214;-62
2021/05/03 04:01:41;;;;;;;9.47;7.33;;;;;;;3.74;100.00;98689.59;5093371;28;20681;-62
2021/05/03 04:04:14;;;;;;;10.93;8.50;;;;;;;3.71;100.00;98684.50;5093660;28;20250;-62
2021/05/03 04:06:46;;;;;;;10.53;7.87;;;;;;;3.68;100.00;98695.03;5093672;28;20214;-63
2021/05/03 04:09:19;;;;;;;11.03;8.23;;;;;;;3.65;100.00;98689.94;5093996;28;20270;-63
2021/05/03 04:12:03;;;;;;;11.53;8.03;;;;;;;3.67;100.00;98693.34;5092625;28;20219;-63
2021/05/03 04:25:26;;;;;;;10.63;7.97;;;;;;;3.77;100.00;98699.13;5093102;28;20211;-63
2021/05/03 04:27:52;;;;;;;10.67;8.30;;;;;;;3.77;100.00;98705.22;5093211;28;20214;-62
2021/05/03 04:30:20;;;;;;;10.53;8.40;;;;;;;3.76;100.00;98706.13;5093239;28;20350;-62
2021/05/03 04:32:46;;;;;;;11.30;8.37;;;;;;;3.74;100.00;98701.84;5093190;28;20221;-63
2021/05/03 04:35:12;;;;;;;11.03;8.47;;;;;;;3.71;100.00;98708.03;5093302;28;20577;-63
2021/05/03 04:37:38;;;;;;;10.63;8.03;;;;;;;3.70;100.00;98708.94;5093182;28;20237;-63
2021/05/03 04:40:05;;;;;;;8.83;7.47;;;;;;;3.69;100.00;98707.22;5091577;28;20206;-63
2021/05/03 04:42:31;;;;;;;8.77;7.60;;;;;;;3.71;100.00;98715.88;5092973;28;20686;-63
2021/05/03 04:44:57;;;;;;;10.47;8.07;;;;;;;3.75;100.00;98717.50;5093265;28;20208;-62
2021/05/03 04:47:24;;;;;;;11.13;8.13;;;;;;;3.89;100.00;98720.50;5093152;28;20293;-63
2021/05/03 04:49:50;;;;;;;9.03;7.67;;;;;;;3.92;100.00;98715.13;5093151;28;20209;-63
2021/05/03 04:52:16;;;;;;;10.40;7.67;;;;;;;3.97;100.00;98715.84;5092774;28;20240;-62
2021/05/03 04:54:42;;;;;;;10.73;8.80;;;;;;;4.01;100.00;98709.63;5093092;28;20205;-62
2021/05/03 04:57:08;;;;;;;9.17;8.00;;;;;;;4.00;100.00;98715.75;5092660;28;20660;-62
2021/05/03 04:59:34;;;;;;;10.33;7.87;;;;;;;4.03;100.00;98723.50;5093083;28;20205;-62
2021/05/03 05:02:00;;;;;;;13.83;8.77;;;;;;;4.06;100.00;98723.41;5092689;28;20709;-63
2021/05/03 05:04:26;;;;;;;13.17;8.80;;;;;;;4.13;100.00;98726.63;5092910;28;20224;-62
2021/05/03 05:06:55;;;;;;;12.47;8.63;;;;;;;4.21;100.00;98733.31;5090901;28;20227;-62
2021/05/03 05:09:21;;;;;;;11.40;8.60;;;;;;;4.29;100.00;98731.28;5092730;28;20214;-63
2021/05/03 05:11:47;;;;;;;9.37;7.97;;;;;;;4.54;100.00;98733.91;5092899;28;20678;-63
2021/05/03 05:14:13;;;;;;;10.70;8.27;;;;;;;4.70;100.00;98729.84;5093002;28;20236;-62
2021/05/03 05:16:39;;;;;;;10.20;8.20;;;;;;;4.84;100.00;98730.19;5092653;28;20210;-62
2021/05/03 05:19:05;;;;;;;10.50;8.40;;;;;;;5.13;100.00;98736.03;5092890;28;20259;-62
2021/05/03 05:21:35;;;;;;;10.83;8.60;;;;;;;5.21;100.00;98740.97;5093584;28;20211;-62
2021/05/03 05:24:01;;;;;;;10.30;8.10;;;;;;;5.30;100.00;98744.09;5096617;28;20203;-62
2021/05/03 05:26:27;;;;;;;11.57;7.87;;;;;;;5.39;100.00;98743.75;5096712;28;20246;-63
2021/05/03 05:28:53;;;;;;;10.13;8.00;;;;;;;5.52;100.00;98752.84;5096588;28;20214;-63
2021/05/03 05:31:19;;;;;;;10.90;8.33;;;;;;;5.74;100.00;98748.44;5096120;28;20307;-62
2021/05/03 05:33:44;;;;;;;11.90;8.97;;;;;;;5.93;100.00;98741.56;5095116;28;20207;-62
2021/05/03 05:36:10;;;;;;;12.47;8.97;;;;;;;6.40;100.00;98739.59;5096455;28;20652;-62
2021/05/03 05:38:38;;;;;;;10.57;8.97;;;;;;;6.90;97.28;98744.31;5096286;28;20361;-62
2021/05/03 05:41:04;;;;;;;9.77;7.97;;;;;;;7.90;91.77;98736.03;5096094;28;20222;-62
2021/05/03 05:43:30;;;;;;;10.40;8.03;;;;;;;8.43;88.13;98744.75;5096144;28;20203;-63
2021/05/03 05:45:56;;;;;;;10.00;8.50;;;;;;;8.25;87.77;98750.94;5096242;28;20214;-62
2021/05/03 05:48:22;;;;;;;11.43;9.10;;;;;;;7.89;89.66;98748.31;5096147;28;20204;-62
2021/05/03 05:50:48;;;;;;;10.03;8.43;;;;;;;7.50;91.74;98747.63;5095819;28;20558;-63
2021/05/03 05:53:14;;;;;;;11.43;9.10;;;;;;;7.17;94.01;98750.94;5096188;28;20208;-64
2021/05/03 05:55:41;;;;;;;11.00;8.70;;;;;;;6.90;95.41;98749.56;5095869;28;20211;-62
2021/05/03 05:58:07;;;;;;;10.10;8.93;;;;;;;6.79;97.53;98743.09;5094018;28;22109;-63
2021/05/03 06:00:33;;;;;;;12.40;9.17;;;;;;;7.47;96.58;98746.91;5096079;28;20208;-62
2021/05/03 06:02:59;;;;;;;10.57;9.07;;;;;;;8.77;90.30;98745.59;5095954;28;20212;-62
2021/05/03 06:05:26;;;;;;;13.17;9.60;;;;;;;10.08;82.41;98741.75;5095831;28;20300;-62
2021/05/03 06:07:52;;;;;;;11.40;9.33;;;;;;;11.18;74.91;98738.56;5095705;28;20209;-62
2021/05/03 06:10:18;;;;;;;9.40;8.03;;;;;;;12.07;70.32;98743.44;5096143;28;20204;-62
2021/05/03 06:12:45;;;;;;;9.83;7.93;;;;;;;12.78;67.82;98739.47;5095853;28;20213;-62
2021/05/03 06:15:11;;;;;;;9.13;8.23;;;;;;;13.32;64.94;98736.50;5095566;28;20246;-63
2021/05/03 06:17:37;;;;;;;10.13;7.83;;;;;;;13.63;62.63;98735.19;5095639;28;20236;-63
2021/05/03 06:20:04;;;;;;;10.40;8.20;;;;;;;13.91;61.11;98741.03;5095677;28;20210;-63
2021/05/03 06:22:31;;;;;;;9.03;8.10;;;;;;;14.04;58.46;98749.81;5095672;28;20207;-62
2021/05/03 06:24:59;;;;;;;10.00;7.87;;;;;;;14.19;59.94;98745.22;5093905;28;20297;-63
2021/05/03 06:27:25;;;;;;;8.73;7.83;;;;;;;14.31;58.95;98752.28;5095472;28;20215;-63
2021/05/03 06:29:52;;;;;;;8.90;7.67;;;;;;;14.31;58.92;98754.94;5095117;28;20251;-63
2021/05/03 06:32:18;;;;;;;10.90;7.50;;;;;;;14.02;59.66;98749.09;5095257;28;20207;-63
2021/05/03 06:34:44;;;;;;;9.40;8.00;;;;;;;13.06;62.38;98763.16;5094217;28;20228;-63
2021/05/03 06:37:11;;;;;;;9.10;7.53;;;;;;;12.17;66.19;98757.78;5095139;28;20325;-63
2021/05/03 06:39:37;;;;;;;9.07;8.00;;;;;;;11.31;69.92;98754.56;5095490;28;20584;-62
2021/05/03 06:42:04;;;;;;;10.13;8.10;;;;;;;10.63;72.51;98763.16;5095011;28;20710;-62
2021/05/03 06:44:30;;;;;;;10.20;8.70;;;;;;;10.13;74.85;98773.19;5095119;28;20206;-62
2021/05/03 06:46:58;;;;;;;9.47;8.23;;;;;;;9.85;77.23;98765.13;5094651;28;20302;-62
2021/05/03 06:49:24;;;;;;;8.97;7.93;;;;;;;9.61;77.91;98774.41;5095051;28;20232;-62
2021/05/03 06:51:50;;;;;;;11.47;8.80;;;;;;;9.48;78.26;98773.38;5093390;28;20362;-62
2021/05/03 06:54:17;;;;;;;10.20;8.43;;;;;;;9.43;79.98;98773.59;5094693;28;20236;-63
2021/05/03 06:56:43;;;;;;;9.50;8.50;;;;;;;9.40;80.05;98775.56;5094792;28;20304;-63
2021/05/03 06:59:09;;;;;;;10.23;8.20;;;;;;;9.41;80.08;98786.03;5094493;28;20263;-63
2021/05/03 07:01:34;;;;;;;10.17;9.07;;;;;;;9.47;79.72;98790.13;5094731;28;20289;-63
2021/05/03 07:04:02;;;;;;;11.17;8.60;;;;;;;9.48;79.36;98787.41;5095053;28;20214;-63
2021/05/03 07:06:28;;;;;;;10.53;8.53;;;;;;;9.53;79.18;98784.50;5094391;28;20208;-62
2021/05/03 07:08:54;;;;;;;11.37;8.63;;;;;;;9.55;77.98;98782.66;5094547;28;20215;-62
2021/05/03 07:11:22;;;;;;;14.57;8.17;;;;;;;9.63;78.46;98791.84;5094609;28;20215;-63
2021/05/03 07:13:48;;;;;;;9.30;7.47;;;;;;;9.63;74.55;98796.28;5094494;28;20218;-63
2021/05/03 07:16:14;;;;;;;9.30;7.57;;;;;;;9.57;71.86;98786.91;5091582;28;20308;-63
2021/05/03 07:18:40;;;;;;;8.97;8.00;;;;;;;9.62;73.68;98795.41;5091487;28;20586;-63
2021/05/03 07:21:07;;;;;;;8.63;7.30;;;;;;;9.70;74.82;98792.34;5093410;28;20554;-63
2021/05/03 07:23:33;;;;;;;8.63;7.03;;;;;;;9.75;74.77;98785.91;5093445;28;20272;-63
2021/05/03 07:25:59;;;;;;;9.30;7.07;;;;;;;9.80;73.33;98788.28;5092010;28;20209;-63
2021/05/03 07:28:26;;;;;;;10.03;7.47;;;;;;;9.96;74.53;98784.69;5091868;28;20465;-62
2021/05/03 07:30:57;;;;;;;8.07;7.27;;;;;;;10.03;74.46;98787.84;5092703;28;20210;-63
2021/05/03 07:33:23;;;;;;;9.20;6.40;;;;;;;10.14;72.77;98782.81;5093661;28;20228;-63
2021/05/03 07:35:49;;;;;;;8.03;6.93;;;;;;;10.15;68.83;98779.25;5093542;28;20209;-63
2021/05/03 07:38:16;;;;;;;7.50;6.67;;;;;;;10.26;70.43;98782.09;5093471;28;20282;-63
2021/05/03 07:40:42;;;;;;;9.20;7.53;;;;;;;10.41;71.68;98786.53;5093178;28;20212;-64
2021/05/03 07:43:08;;;;;;;8.07;7.20;;;;;;;10.45;71.65;98788.06;5091831;28;20636;-63
2021/05/03 07:45:34;;;;;;;8.30;6.83;;;;;;;10.50;69.49;98792.13;5092345;28;20246;-63
2021/05/03 07:48:00;;;;;;;9.50;7.37;;;;;;;10.59;70.58;98786.28;5093346;28;20207;-63
2021/05/03 07:50:26;;;;;;;8.10;6.40;;;;;;;10.69;62.89;98791.88;5093373;28;20214;-63
2021/05/03 07:52:54;;;;;;;7.50;6.40;;;;;;;10.52;61.95;98784.13;5093335;28;20205;-63
2021/05/03 07:55:21;;;;;;;7.93;6.23;;;;;;;10.51;67.95;98782.41;5093227;28;20207;-63
2021/05/03 07:57:47;;;;;;;6.80;5.83;;;;;;;10.60;66.57;98785.38;5093112;28;20295;-63
2021/05/03 08:00:14;;;;;;;6.77;6.00;;;;;;;10.56;62.75;98786.47;5092830;28;20299;-63
2021/05/03 08:02:40;;;;;;;6.80;5.60;;;;;;;10.62;61.41;98790.53;5093133;28;20264;-63
2021/05/03 08:05:07;;;;;;;6.57;5.80;;;;;;;10.57;61.88;98787.31;5093039;28;20232;-63
2021/05/03 08:07:33;;;;;;;6.30;5.70;;;;;;;10.78;58.26;98781.63;5092786;28;20258;-63
2021/05/03 08:09:59;;;;;;;6.47;5.80;;;;;;;10.70;59.69;98783.88;5091211;28;20253;-63
2021/05/03 08:12:28;;;;;;;6.23;5.63;;;;;;;10.72;57.64;98781.13;5092854;28;20206;-63
2021/05/03 08:14:54;;;;;;;6.90;6.20;;;;;;;10.72;59.13;98782.00;5092772;28;20305;-63
2021/05/03 08:17:20;;;;;;;8.13;6.03;;;;;;;10.58;58.87;98783.75;5092861;28;20700;-63
2021/05/03 08:19:46;;;;;;;6.13;5.53;;;;;;;10.52;59.88;98782.31;5092582;28;20672;-63
2021/05/03 08:22:13;;;;;;;6.60;5.90;;;;;;;10.38;61.52;98779.63;5093130;28;20213;-63
2021/05/03 08:24:40;;;;;;;10.13;6.70;;;;;;;10.25;60.91;98777.78;5092769;28;20206;-63
2021/05/03 08:27:07;;;;;;;8.57;6.50;;;;;;;10.13;62.02;98781.97;5092734;28;20232;-63
2021/05/03 08:29:35;;;;;;;6.77;5.63;;;;;;;10.23;63.12;98777.00;5092687;28;20213;-63
2021/05/03 08:32:02;;;;;;;6.03;5.43;;;;;;;10.69;60.97;98781.31;5092557;28;20214;-63
2021/05/03 08:34:28;;;;;;;6.60;5.77;;;;;;;11.31;59.59;98776.56;5093036;28;20209;-63
2021/05/03 08:36:56;;;;;;;6.53;5.83;;;;;;;11.68;59.48;98775.97;5090897;28;20214;-63
2021/05/03 08:39:24;;;;;;;7.50;6.10;;;;;;;12.10;59.23;98777.69;5092621;28;20213;-63
2021/05/03 08:41:50;;;;;;;6.60;5.70;;;;;;;12.32;58.60;98770.88;5090487;28;20680;-62
2021/05/03 08:44:16;;;;;;;7.30;5.97;;;;;;;12.54;56.98;98775.59;5092188;28;20244;-63
2021/05/03 08:46:44;;;;;;;8.13;6.33;;;;;;;12.35;56.19;98772.47;5092397;28;20604;-63
2021/05/03 08:49:17;;;;;;;6.90;5.90;;;;;;;12.18;56.75;98770.91;5072419;28;20584;-63
2021/05/03 08:51:48;;;;;;;7.30;6.33;;;;;;;11.87;60.68;98771.22;5072168;28;20711;-63
2021/05/03 08:54:20;;;;;;;6.87;6.07;;;;;;;11.65;61.19;98770.03;5072447;28;20770;-63
2021/05/03 08:56:46;;;;;;;7.53;6.50;;;;;;;11.91;62.51;98766.56;5073566;28;20233;-63
2021/05/03 08:59:13;;;;;;;7.03;5.50;;;;;;;12.46;63.17;98764.66;5074472;28;20325;-64
2021/05/03 09:01:43;;;;;;;7.87;6.60;;;;;;;13.08;59.27;98763.94;5072290;28;20274;-64
2021/05/03 09:04:10;;;;;;;6.43;5.80;;;;;;;13.58;58.02;98763.88;5075614;28;20215;-64
2021/05/03 09:06:36;;;;;;;7.23;5.70;;;;;;;13.95;57.37;98747.84;5075307;28;20221;-63
2021/05/03 09:09:06;;;;;;;9.13;5.83;;;;;;;13.99;52.33;98756.44;5076097;28;20343;-63
2021/05/03 09:11:33;;;;;;;7.47;6.53;;;;;;;13.86;52.89;98753.81;5093575;28;20778;-63
2021/05/03 09:14:12;;;;;;;6.77;6.13;;;;;;;13.91;51.30;98761.44;5095147;28;20671;-64
2021/05/03 09:16:44;;;;;;;7.00;5.73;;;;;;;13.75;52.21;98752.91;5095039;28;20244;-63
2021/05/03 09:19:11;;;;;;;6.40;5.80;;;;;;;13.72;54.22;98763.72;5095161;28;20265;-63
2021/05/03 09:21:38;;;;;;;6.87;5.90;;;;;;;13.71;51.14;98760.25;5094751;28;20218;-63
2021/05/03 09:24:12;;;;;;;7.00;5.50;;;;;;;13.78;53.50;98752.66;5094650;28;20214;-64
2021/05/03 09:26:42;;;;;;;7.30;5.90;;;;;;;13.94;54.33;98746.13;5095302;28;20214;-63
2021/05/03 09:29:41;;;;;;;5.90;5.40;;;;;;;13.97;52.73;98739.72;5092439;28;20352;-64
2021/05/03 09:32:12;;;;;;;5.73;5.13;;;;;;;13.97;52.04;98735.28;5012548;28;20213;-63
2021/05/03 09:34:40;;;;;;;5.97;5.33;;;;;;;14.18;52.94;98722.22;5079047;28;20254;-63
2021/05/03 09:37:18;;;;;;;6.57;5.20;;;;;;;14.53;51.89;98729.28;5094267;28;20283;-63
2021/05/03 09:39:50;;;;;;;9.70;5.50;;;;;;;14.87;49.74;98731.06;5094739;28;20214;-63
2021/05/03 09:42:16;;;;;;;7.43;6.07;;;;;;;15.06;50.27;98728.69;5095013;28;20207;-63
2021/05/03 09:45:04;;;;;;;6.33;5.57;;;;;;;15.31;47.60;98723.13;5093836;28;20299;-63
2021/05/03 09:47:32;;;;;;;5.33;4.83;;;;;;;15.51;45.75;98724.25;5094960;28;20207;-63
2021/05/03 09:49:58;;;;;;;6.53;5.83;;;;;;;15.59;45.63;98729.81;5094161;28;20696;-64
2021/05/03 09:52:25;;;;;;;4.57;3.90;;;;;;;15.46;43.77;98726.44;5094258;28;20213;-63
2021/05/03 09:54:51;;;;;;;5.50;4.47;;;;;;;15.42;43.50;98723.16;5093014;28;20261;-63
2021/05/03 09:57:18;;;;;;;5.73;5.13;;;;;;;15.25;43.07;98722.75;5093985;28;20606;-63
2021/05/03 09:59:45;;;;;;;5.70;5.20;;;;;;;14.84;44.07;98735.78;5093539;28;20215;-64
2021/05/03 10:02:19;;;;;;;7.27;4.67;;;;;;;14.51;43.16;98730.34;5094621;28;20211;-63
2021/05/03 10:04:58;;;;;;;6.07;4.40;;;;;;;14.16;45.91;98738.28;5094466;28;20207;-63
2021/05/03 10:07:27;;;;;;;4.90;4.40;;;;;;;14.10;45.99;98737.88;5093304;28;20701;-63
2021/05/03 10:10:01;;;;;;;4.80;4.10;;;;;;;13.98;44.90;98726.34;5094607;28;20215;-64
2021/05/03 10:12:27;;;;;;;4.40;4.00;;;;;;;13.97;43.77;98739.72;5094845;28;20222;-63
2021/05/03 10:14:54;;;;;;;5.03;3.87;;;;;;;13.84;45.31;98730.97;5094825;28;20232;-63
2021/05/03 10:17:20;;;;;;;4.20;3.63;;;;;;;13.89;46.49;98726.16;5095077;28;20331;-64
2021/05/03 10:19:49;;;;;;;4.03;3.67;;;;;;;13.79;44.11;98733.09;5095129;28;20202;-64
2021/05/03 10:22:20;;;;;;;3.97;3.50;;;;;;;13.65;43.99;98730.59;5093624;28;20208;-63
2021/05/03 10:24:49;;;;;;;3.77;2.97;;;;;;;13.58;44.23;98730.19;5095077;28;20293;-63
2021/05/03 10:27:17;;;;;;;3.33;3.00;;;;;;;13.71;44.28;98733.69;5094937;28;20581;-63
2021/05/03 10:29:43;;;;;;;3.60;3.30;;;;;;;13.87;44.32;98728.09;5094518;28;20217;-63
2021/05/03 10:32:11;;;;;;;4.77;3.47;;;;;;;14.18;42.92;98725.69;5094602;28;20731;-64
2021/05/03 10:34:49;;;;;;;3.70;3.30;;;;;;;14.52;41.33;98716.09;5094967;28;20234;-63
2021/05/03 10:37:40;;;;;;;3.17;2.87;;;;;;;14.77;41.67;98715.91;5094659;28;20211;-63
2021/05/03 10:40:30;;;;;;;4.07;3.50;;;;;;;14.96;41.98;98713.53;5094583;28;20208;-63
2021/05/03 10:43:18;;;;;;;4.73;3.37;;;;;;;15.14;42.68;98709.41;5094260;28;20274;-63
2021/05/03 10:45:52;;;;;;;4.20;3.80;;;;;;;14.94;41.81;98702.16;5094952;28;20300;-63
2021/05/03 10:48:37;;;;;;;5.10;3.60;;;;;;;14.84;42.53;98693.19;5092934;28;20211;-63
2021/05/03 10:51:06;;;;;;;4.30;3.80;;;;;;;14.90;39.38;98684.75;5094438;28;20215;-63
2021/05/03 10:53:36;;;;;;;3.90;3.53;;;;;;;15.03;40.96;98686.31;5094128;28;20219;-63
2021/05/03 10:56:04;;;;;;;4.03;3.40;;;;;;;15.48;41.64;98680.03;5094270;28;20210;-63
2021/05/03 10:58:31;;;;;;;4.13;3.73;;;;;;;15.72;38.54;98688.72;5094168;28;20241;-63
2021/05/03 11:01:00;;;;;;;3.83;3.43;;;;;;;15.49;38.71;98681.75;5093676;28;20207;-63
2021/05/03 11:04:03;;;;;;;4.77;3.40;;;;;;;15.16;40.13;98675.56;5094083;28;20616;-63
2021/05/03 11:07:03;;;;;;;4.33;3.57;;;;;;;14.82;41.42;98671.16;5094267;28;20209;-63
2021/05/03 11:09:39;;;;;;;3.80;3.23;;;;;;;14.76;40.01;98668.97;5093422;28;20220;-63
2021/05/03 11:12:28;;;;;;;3.63;3.33;;;;;;;14.82;37.69;98660.50;5093738;28;20260;-63
2021/05/03 11:15:21;;;;;;;4.27;3.07;;;;;;;14.94;39.52;98664.88;5092346;28;20241;-63
2021/05/03 11:18:26;;;;;;;3.10;2.90;;;;;;;15.24;38.40;98662.47;5093655;28;20242;-63
2021/05/03 11:21:15;;;;;;;4.27;3.40;;;;;;;15.43;37.40;98657.38;5093640;28;20246;-63
2021/05/03 11:23:42;;;;;;;3.40;3.10;;;;;;;15.10;39.29;98657.41;5093687;28;20218;-63
2021/05/03 11:26:25;;;;;;;3.53;3.23;;;;;;;14.61;36.94;98651.56;5093807;28;20264;-63
2021/05/03 11:28:51;;;;;;;3.97;3.40;;;;;;;14.10;38.23;98653.66;5093602;28;20213;-63
2021/05/03 11:31:21;;;;;;;3.70;3.13;;;;;;;13.92;39.05;98648.84;5093348;28;20272;-64
2021/05/03 11:34:00;;;;;;;3.30;3.00;;;;;;;13.82;42.76;98646.03;5093246;28;20699;-63
2021/05/03 11:36:33;;;;;;;3.57;3.27;;;;;;;14.07;44.55;98642.41;5093280;28;20243;-63
2021/05/03 11:39:06;;;;;;;2.90;2.50;;;;;;;14.36;41.78;98641.09;5093154;28;20646;-63
2021/05/03 11:41:56;;;;;;;4.00;2.70;;;;;;;14.63;40.15;98637.16;5092243;28;20212;-63
2021/05/03 11:44:41;;;;;;;2.63;2.43;;;;;;;14.93;39.39;98639.25;5093121;28;20210;-63
2021/05/03 11:47:08;;;;;;;2.93;2.50;;;;;;;15.35;40.15;98628.72;5092940;28;20218;-63
2021/05/03 11:49:42;;;;;;;3.33;2.57;;;;;;;15.35;35.25;98623.41;5093358;28;20215;-63